Time;durP1;ratioP1;P1;durP2;ratioP2;P2;SDS_P1;SDS_P2;PMS_P1;PMS_P2;Temp;Humidity;BMP_temperature;BMP_pressure;BME280_temperature;BME280_humidity;BME280_pressure;Samples;Min_cycle;Max_cycle;Signal;HPM_P1;HPM_P2
2022/06/16 00:00:06;;;;;;;5.63;4.93;;;19.30;79.50;;;;;;4964625;28;20204;-61
2022/06/16 00:02:32;;;;;;;10.18;5.15;;;19.30;79.80;;;;;;4969324;28;20193;-61
2022/06/16 00:04:58;;;;;;;5.30;4.90;;;19.30;80.60;;;;;;4971988;28;20204;-61
2022/06/16 00:07:23;;;;;;;6.03;5.53;;;19.00;80.70;;;;;;4971507;28;20188;-61
2022/06/16 00:09:49;;;;;;;4.93;4.53;;;19.20;81.50;;;;;;4970520;28;20204;-61
2022/06/16 00:12:15;;;;;;;5.40;5.00;;;19.10;82.50;;;;;;4971134;28;20246;-61
2022/06/16 00:14:41;;;;;;;4.80;4.40;;;19.20;83.90;;;;;;4971667;28;20303;-61
2022/06/16 00:17:07;;;;;;;4.97;4.57;;;19.60;82.90;;;;;;4970034;28;20459;-61
2022/06/16 00:19:33;;;;;;;5.10;4.70;;;19.10;82.40;;;;;;4970754;28;20455;-61
2022/06/16 00:21:59;;;;;;;5.07;4.57;;;19.20;82.10;;;;;;4971352;28;20494;-62
2022/06/16 00:24:27;;;;;;;5.03;4.50;;;19.10;82.30;;;;;;4971467;28;20193;-62
2022/06/16 00:26:56;;;;;;;5.43;4.93;;;19.00;82.30;;;;;;4969987;28;20185;-61
2022/06/16 00:29:24;;;;;;;4.70;4.30;;;19.00;82.30;;;;;;4971182;28;20239;-61
2022/06/16 00:31:50;;;;;;;4.80;4.40;;;19.00;82.30;;;;;;4966122;28;20181;-61
2022/06/16 00:34:16;;;;;;;4.77;4.47;;;19.00;82.30;;;;;;4970668;28;20206;-61
2022/06/16 00:36:41;;;;;;;5.53;4.87;;;19.00;82.60;;;;;;4969687;28;20456;-60
2022/06/16 00:39:07;;;;;;;4.47;4.07;;;19.00;83.00;;;;;;4968318;28;20231;-61
2022/06/16 00:41:32;;;;;;;5.20;4.80;;;18.90;83.40;;;;;;4966871;28;20189;-61
2022/06/16 00:44:00;;;;;;;4.80;4.30;;;18.80;83.60;;;;;;4971268;28;20193;-61
2022/06/16 00:46:28;;;;;;;4.93;4.53;;;18.40;83.40;;;;;;4971215;28;20609;-61
2022/06/16 00:49:00;;;;;;;4.88;4.57;;;18.80;84.00;;;;;;4969301;28;20196;-61
2022/06/16 00:51:45;;;;;;;5.13;4.70;;;18.80;83.90;;;;;;4970842;28;20192;-61
2022/06/16 00:54:18;;;;;;;5.43;4.50;;;18.70;84.40;;;;;;4964914;28;20320;-61
2022/06/16 00:56:43;;;;;;;6.85;4.30;;;18.80;85.00;;;;;;4966520;28;20600;-61
2022/06/16 00:59:10;;;;;;;4.87;4.57;;;18.80;84.40;;;;;;4969284;28;20180;-61
2022/06/16 01:01:39;;;;;;;5.22;4.78;;;18.80;84.20;;;;;;4969964;28;20180;-61
2022/06/16 01:06:49;;;;;;;4.57;4.20;;;18.70;83.80;;;;;;4970379;28;20195;-61
2022/06/16 01:09:22;;;;;;;4.97;4.47;;;18.70;84.20;;;;;;4970615;28;20188;-61
2022/06/16 01:15:18;;;;;;;3.97;3.67;;;18.70;84.40;;;;;;4970716;28;20222;-61
2022/06/16 01:18:08;;;;;;;4.45;4.10;;;18.60;84.20;;;;;;4966847;28;20212;-61
2022/06/16 01:21:15;;;;;;;4.90;4.47;;;18.60;84.30;;;;;;4970030;28;20681;-61
2022/06/16 01:24:08;;;;;;;4.60;4.30;;;18.60;84.40;;;;;;4969299;28;20189;-61
2022/06/16 01:26:53;;;;;;;4.82;4.40;;;18.60;84.30;;;;;;4965723;28;20211;-61
2022/06/16 01:29:33;;;;;;;4.55;4.15;;;18.40;84.90;;;;;;4969958;28;20204;-61
2022/06/16 01:32:11;;;;;;;4.78;4.38;;;18.40;85.20;;;;;;4966391;28;20252;-61
2022/06/16 01:34:48;;;;;;;4.82;4.50;;;18.70;86.00;;;;;;4968037;28;20545;-61
2022/06/16 01:37:41;;;;;;;4.78;4.40;;;18.30;85.70;;;;;;4971482;28;20187;-61
2022/06/16 01:40:21;;;;;;;4.90;4.40;;;18.40;86.20;;;;;;4968494;28;20236;-61
2022/06/16 01:42:53;;;;;;;4.45;4.15;;;18.40;86.30;;;;;;4973586;28;20212;-61
2022/06/16 01:45:34;;;;;;;4.38;4.05;;;18.40;86.50;;;;;;4974916;28;20185;-61
2022/06/16 01:48:00;;;;;;;4.68;4.22;;;18.40;85.90;;;;;;4973568;28;20649;-61
2022/06/16 01:50:39;;;;;;;4.30;4.00;;;18.20;85.60;;;;;;4974503;28;20825;-61
2022/06/16 01:53:10;;;;;;;5.25;4.50;;;18.20;85.40;;;;;;4970469;28;20208;-61
2022/06/16 01:55:41;;;;;;;4.63;4.22;;;18.20;85.60;;;;;;4974669;28;20195;-61
2022/06/16 01:58:21;;;;;;;4.85;4.35;;;18.10;85.60;;;;;;4967295;28;20275;-61
2022/06/16 02:00:48;;;;;;;4.40;4.10;;;18.50;86.20;;;;;;4973696;28;20207;-61
2022/06/16 02:03:26;;;;;;;4.75;4.40;;;18.10;86.30;;;;;;4970527;28;20645;-61
2022/06/16 02:05:57;;;;;;;4.95;4.65;;;18.10;86.90;;;;;;4974434;28;20666;-61
2022/06/16 02:08:28;;;;;;;4.57;4.28;;;18.00;87.40;;;;;;4974267;28;20193;-61
2022/06/16 02:11:01;;;;;;;4.70;4.30;;;17.90;88.10;;;;;;4971209;28;20205;-61
2022/06/16 02:13:34;;;;;;;4.63;4.30;;;17.90;89.60;;;;;;4974079;28;20212;-61
2022/06/16 02:16:21;;;;;;;4.80;4.40;;;17.90;88.70;;;;;;4973666;28;20189;-61
2022/06/16 02:18:51;;;;;;;4.68;4.28;;;17.80;88.50;;;;;;4972199;28;20192;-61
2022/06/16 02:21:35;;;;;;;4.25;3.85;;;17.80;88.80;;;;;;4972323;28;20200;-62
2022/06/16 02:24:05;;;;;;;5.70;4.40;;;17.70;89.40;;;;;;4973340;28;20183;-61
2022/06/16 02:26:31;;;;;;;4.85;4.45;;;17.70;89.70;;;;;;4970563;28;20650;-61
2022/06/16 02:29:00;;;;;;;4.80;4.32;;;17.60;90.00;;;;;;4973841;28;20196;-61
2022/06/16 02:32:03;;;;;;;4.88;4.15;;;17.70;89.80;;;;;;4973736;28;20184;-61
2022/06/16 02:34:41;;;;;;;5.05;4.65;;;17.70;89.50;;;;;;4999691;28;20239;-61
2022/06/16 02:37:26;;;;;;;4.30;4.00;;;17.60;89.30;;;;;;4972183;28;20250;-61
2022/06/16 02:40:32;;;;;;;5.55;4.75;;;17.60;89.70;;;;;;4972756;28;20204;-61
2022/06/16 02:43:19;;;;;;;4.80;4.40;;;17.60;89.70;;;;;;4969614;28;20267;-61
2022/06/16 02:46:05;;;;;;;4.53;4.13;;;17.60;90.00;;;;;;4972001;28;20258;-60
2022/06/16 02:49:01;;;;;;;4.57;4.18;;;17.60;90.20;;;;;;4970910;28;20278;-61
2022/06/16 02:51:35;;;;;;;4.75;4.10;;;17.70;90.30;;;;;;4966710;28;20658;-63
2022/06/16 02:54:20;;;;;;;5.07;4.18;;;17.70;89.70;;;;;;4967651;28;20216;-62
2022/06/16 02:57:17;;;;;;;4.15;3.75;;;17.70;89.80;;;;;;4972375;28;20192;-61
2022/06/16 02:59:49;;;;;;;4.55;4.15;;;17.70;90.00;;;;;;4970251;28;20196;-61
2022/06/16 03:02:20;;;;;;;4.88;4.47;;;17.60;89.90;;;;;;4971626;28;20176;-61
2022/06/16 03:04:51;;;;;;;4.30;3.90;;;17.60;89.60;;;;;;4971225;28;20196;-61
2022/06/16 03:07:17;;;;;;;5.30;4.88;;;17.70;88.80;;;;;;4972701;28;20172;-61
2022/06/16 03:09:43;;;;;;;5.00;4.60;;;17.70;88.20;;;;;;4970165;28;20208;-62
2022/06/16 03:12:11;;;;;;;5.07;4.55;;;17.70;89.30;;;;;;4971423;28;20239;-61
2022/06/16 03:14:37;;;;;;;5.05;4.65;;;17.70;90.00;;;;;;4972938;28;20208;-61
2022/06/16 03:17:05;;;;;;;5.00;4.60;;;17.80;89.00;;;;;;4970884;28;20248;-61
2022/06/16 03:19:31;;;;;;;5.10;4.60;;;17.80;88.20;;;;;;4972858;28;20567;-62
2022/06/16 03:21:56;;;;;;;4.80;4.50;;;17.80;88.10;;;;;;4972632;28;20188;-61
2022/06/16 03:24:23;;;;;;;5.20;4.50;;;17.80;87.90;;;;;;4978944;28;20191;-61
2022/06/16 03:26:49;;;;;;;4.45;4.15;;;17.80;87.70;;;;;;4971127;28;20188;-61
2022/06/16 03:29:15;;;;;;;4.33;4.03;;;17.80;87.60;;;;;;4972597;28;20199;-61
2022/06/16 03:31:41;;;;;;;5.00;4.57;;;17.80;87.70;;;;;;4971276;28;20448;-61
2022/06/16 03:34:06;;;;;;;4.47;4.07;;;17.80;88.20;;;;;;4972225;28;20236;-61
2022/06/16 03:36:33;;;;;;;5.07;4.67;;;17.90;88.50;;;;;;4972181;28;21037;-61
2022/06/16 03:39:00;;;;;;;4.57;4.28;;;17.90;88.60;;;;;;4971212;28;20191;-61
2022/06/16 03:41:25;;;;;;;4.53;4.13;;;17.80;88.70;;;;;;4970331;28;20177;-61
2022/06/16 03:43:51;;;;;;;6.50;4.40;;;17.80;88.80;;;;;;4971822;28;20763;-61
2022/06/16 03:46:17;;;;;;;6.07;4.47;;;17.90;88.80;;;;;;4971730;28;20180;-61
2022/06/16 03:48:43;;;;;;;4.83;4.33;;;18.30;89.00;;;;;;4968575;28;20184;-61
2022/06/16 03:51:09;;;;;;;4.95;4.53;;;17.90;88.70;;;;;;4971821;28;20467;-61
2022/06/16 03:53:36;;;;;;;5.25;4.85;;;17.90;88.80;;;;;;4971546;28;20208;-61
2022/06/16 03:56:03;;;;;;;5.28;4.53;;;18.00;89.20;;;;;;4969393;28;20231;-61
2022/06/16 03:58:28;;;;;;;5.47;5.00;;;18.10;89.00;;;;;;4971514;28;20547;-61
2022/06/16 04:00:54;;;;;;;4.77;4.40;;;18.20;88.80;;;;;;4971061;28;20286;-61
2022/06/16 04:06:04;;;;;;;5.10;4.60;;;18.20;88.40;;;;;;4967589;28;20191;-61
2022/06/16 04:08:30;;;;;;;4.30;4.00;;;18.30;87.80;;;;;;4966491;28;20236;-61
2022/06/16 04:10:56;;;;;;;4.57;4.17;;;18.40;87.50;;;;;;4971508;28;20850;-61
2022/06/16 04:13:21;;;;;;;4.93;4.53;;;18.50;88.10;;;;;;4965933;28;20481;-61
2022/06/16 04:15:48;;;;;;;4.97;4.50;;;18.60;87.60;;;;;;4968588;28;20444;-61
2022/06/16 04:18:14;;;;;;;5.70;5.20;;;18.80;87.20;;;;;;4969757;28;20169;-61
2022/06/16 04:20:40;;;;;;;4.50;4.07;;;18.80;87.30;;;;;;4965418;28;20223;-61
2022/06/16 04:23:10;;;;;;;4.53;4.10;;;18.90;87.10;;;;;;4970370;28;20188;-61
2022/06/16 04:25:35;;;;;;;5.18;4.68;;;19.10;86.80;;;;;;4966927;28;20187;-61
2022/06/16 04:28:04;;;;;;;5.20;4.70;;;19.00;86.70;;;;;;4969485;28;20184;-61
2022/06/16 04:30:31;;;;;;;4.75;4.35;;;19.20;86.80;;;;;;4968556;28;20201;-61
2022/06/16 04:32:58;;;;;;;5.20;4.80;;;19.30;85.90;;;;;;4969065;28;20182;-61
2022/06/16 04:35:25;;;;;;;4.68;4.28;;;19.40;84.80;;;;;;4967303;28;20196;-61
2022/06/16 04:37:50;;;;;;;4.82;4.43;;;19.40;84.20;;;;;;4967652;28;20267;-61
2022/06/16 04:40:16;;;;;;;4.37;4.00;;;19.60;84.10;;;;;;4963542;28;20292;-61
2022/06/16 04:42:42;;;;;;;4.57;4.27;;;19.70;83.60;;;;;;4963631;28;20192;-62
2022/06/16 04:45:10;;;;;;;4.27;3.97;;;19.70;83.40;;;;;;4969725;28;20215;-61
2022/06/16 04:47:37;;;;;;;5.40;4.55;;;19.70;83.70;;;;;;4966155;28;20187;-61
2022/06/16 04:50:02;;;;;;;4.63;4.25;;;19.80;83.90;;;;;;4967529;28;20246;-61
2022/06/16 04:52:28;;;;;;;4.33;4.00;;;19.80;83.60;;;;;;4969721;28;20188;-61
2022/06/16 04:54:54;;;;;;;4.23;3.93;;;19.80;83.50;;;;;;4971305;28;20258;-61
2022/06/16 04:57:19;;;;;;;4.30;3.90;;;19.80;83.60;;;;;;4968962;28;20184;-61
2022/06/16 04:59:45;;;;;;;4.30;4.00;;;20.00;84.50;;;;;;4968755;28;20206;-61
2022/06/16 05:02:10;;;;;;;4.90;4.50;;;20.10;84.80;;;;;;4968863;28;20190;-64
2022/06/16 05:04:39;;;;;;;4.67;4.30;;;20.10;84.00;;;;;;4965228;28;20203;-64
2022/06/16 05:07:05;;;;;;;4.40;4.03;;;20.10;82.90;;;;;;4969256;28;20759;-64
2022/06/16 05:09:31;;;;;;;4.80;4.50;;;20.20;82.30;;;;;;4969286;28;20278;-64
2022/06/16 05:11:56;;;;;;;4.73;4.33;;;20.20;83.20;;;;;;4968647;28;20285;-64
2022/06/16 05:14:23;;;;;;;5.00;4.23;;;20.20;82.80;;;;;;4973695;28;20230;-64
2022/06/16 05:16:49;;;;;;;4.78;4.35;;;20.30;83.60;;;;;;4973188;28;20191;-64
2022/06/16 05:19:15;;;;;;;5.22;4.75;;;20.30;83.60;;;;;;4973532;28;20184;-63
2022/06/16 05:21:41;;;;;;;4.40;4.10;;;20.20;82.90;;;;;;4973125;28;20230;-64
2022/06/16 05:24:07;;;;;;;4.40;4.00;;;20.30;84.10;;;;;;4972562;28;20217;-63
2022/06/16 05:26:33;;;;;;;4.57;4.18;;;20.40;84.40;;;;;;4971725;28;20616;-64
2022/06/16 05:28:59;;;;;;;5.90;5.40;;;20.60;83.50;;;;;;4973797;28;20199;-63
2022/06/16 05:31:24;;;;;;;5.90;5.50;;;20.80;84.60;;;;;;4973123;28;20189;-64
2022/06/16 05:33:50;;;;;;;5.73;5.23;;;20.90;83.90;;;;;;4972227;28;20207;-64
2022/06/16 05:36:18;;;;;;;5.37;4.97;;;21.10;83.30;;;;;;4973082;28;20272;-63
2022/06/16 05:38:43;;;;;;;6.72;5.45;;;21.30;83.90;;;;;;4973046;28;20601;-64
2022/06/16 05:41:15;;;;;;;5.70;5.30;;;21.40;84.70;;;;;;4971550;28;20204;-64
2022/06/16 05:43:42;;;;;;;5.68;5.18;;;21.50;83.80;;;;;;4973763;28;20184;-64
2022/06/16 05:46:19;;;;;;;5.37;4.93;;;21.50;82.20;;;;;;4972045;28;20215;-64
2022/06/16 05:48:45;;;;;;;6.00;5.50;;;21.80;81.20;;;;;;4963638;28;20517;-64
2022/06/16 05:51:13;;;;;;;8.20;5.00;;;22.00;80.40;;;;;;4968304;28;20472;-64
2022/06/16 05:53:40;;;;;;;6.00;5.50;;;22.20;79.50;;;;;;4973109;28;20662;-64
2022/06/16 05:56:06;;;;;;;5.13;4.73;;;22.40;77.50;;;;;;4972165;28;20424;-64
2022/06/16 05:58:32;;;;;;;7.50;5.33;;;22.50;76.60;;;;;;4969272;28;20451;-63
2022/06/16 06:00:58;;;;;;;7.43;5.17;;;22.20;76.80;;;;;;4971786;28;20459;-64
2022/06/16 06:03:24;;;;;;;5.93;5.33;;;22.20;79.40;;;;;;4964145;28;20200;-64
2022/06/16 06:05:50;;;;;;;5.60;5.20;;;22.30;76.80;;;;;;4971511;28;20431;-64
2022/06/16 06:16:38;;;;;;;5.60;5.20;;;22.50;78.80;;;;;;4967965;28;20534;-64
2022/06/16 06:19:25;;;;;;;5.10;4.70;;;22.60;79.50;;;;;;4971610;28;20439;-64
2022/06/16 06:22:13;;;;;;;6.07;5.57;;;22.80;78.80;;;;;;4969715;28;20446;-64
2022/06/16 06:24:40;;;;;;;5.57;4.90;;;23.00;77.10;;;;;;4967495;28;20554;-64
2022/06/16 06:27:13;;;;;;;5.47;4.97;;;23.40;76.50;;;;;;4969820;28;20470;-65
2022/06/16 06:29:38;;;;;;;4.90;4.60;;;23.80;75.20;;;;;;4970446;28;20474;-64
2022/06/16 06:32:04;;;;;;;5.80;5.20;;;23.80;72.80;;;;;;4965524;28;21138;-63
2022/06/16 06:34:30;;;;;;;5.17;4.87;;;23.80;71.30;;;;;;4969574;28;20303;-64
2022/06/16 06:36:57;;;;;;;5.27;4.87;;;23.90;71.90;;;;;;4965768;28;20542;-64
2022/06/16 06:39:22;;;;;;;5.23;4.93;;;24.10;70.70;;;;;;4970508;28;20777;-64
2022/06/16 06:41:48;;;;;;;6.20;5.70;;;24.20;68.70;;;;;;4967176;28;20554;-64
2022/06/16 06:44:14;;;;;;;5.53;5.03;;;24.40;68.30;;;;;;4969743;28;20908;-64
2022/06/16 06:46:40;;;;;;;4.50;4.20;;;24.50;66.30;;;;;;4956664;28;20451;-64
2022/06/16 06:49:06;;;;;;;4.83;4.47;;;24.80;67.00;;;;;;4964938;28;20879;-64
2022/06/16 06:51:33;;;;;;;4.80;4.40;;;25.00;65.60;;;;;;4967696;28;20454;-65
2022/06/16 06:54:00;;;;;;;5.07;4.67;;;25.30;64.70;;;;;;4971461;28;20503;-65
2022/06/16 06:56:28;;;;;;;5.67;5.17;;;25.60;64.10;;;;;;4965308;28;21202;-64
2022/06/16 06:58:56;;;;;;;5.57;5.10;;;25.70;61.60;;;;;;4972054;28;20908;-64
2022/06/16 07:01:22;;;;;;;4.80;4.40;;;25.90;61.10;;;;;;4969443;28;20512;-64
2022/06/16 07:03:49;;;;;;;4.93;4.63;;;26.10;60.90;;;;;;4915169;28;1538460;-64
2022/06/16 07:06:16;;;;;;;5.63;5.17;;;26.40;60.50;;;;;;4970313;28;20188;-65
2022/06/16 07:08:42;;;;;;;5.27;4.87;;;26.80;59.00;;;;;;4969510;28;20482;-65
2022/06/16 07:11:09;;;;;;;4.80;4.50;;;26.90;59.30;;;;;;4968213;28;20472;-64
2022/06/16 07:13:35;;;;;;;6.53;5.17;;;27.80;59.00;;;;;;4970488;28;20478;-64
2022/06/16 07:16:01;;;;;;;5.70;5.20;;;28.00;55.90;;;;;;4967225;28;20971;-64
2022/06/16 07:18:27;;;;;;;6.10;5.20;;;28.10;56.00;;;;;;4970477;28;20485;-64
2022/06/16 07:20:52;;;;;;;5.57;5.07;;;29.30;55.30;;;;;;4972115;28;20495;-64
2022/06/16 07:23:19;;;;;;;5.90;5.50;;;31.10;52.10;;;;;;4967391;28;20281;-64
2022/06/16 07:25:49;;;;;;;6.63;5.00;;;31.90;49.90;;;;;;4970048;28;20199;-64
2022/06/16 07:28:15;;;;;;;5.90;5.50;;;33.00;46.50;;;;;;4967920;28;20471;-65
2022/06/16 07:30:42;;;;;;;6.20;5.70;;;34.20;44.20;;;;;;4971201;28;20471;-64
2022/06/16 07:33:08;;;;;;;6.50;5.83;;;34.20;43.10;;;;;;4968799;28;20455;-65
2022/06/16 07:35:34;;;;;;;5.50;5.10;;;32.80;45.60;;;;;;4970871;28;20816;-65
2022/06/16 07:38:00;;;;;;;6.60;6.10;;;33.30;45.00;;;;;;4967970;28;20226;-64
2022/06/16 07:40:26;;;;;;;5.73;5.33;;;33.40;45.00;;;;;;4968466;28;20507;-64
2022/06/16 07:42:56;;;;;;;7.10;6.10;;;33.30;45.20;;;;;;4971766;28;20435;-64
2022/06/16 07:45:23;;;;;;;10.50;9.47;;;33.30;44.10;;;;;;4972084;28;20188;-64
2022/06/16 07:47:50;;;;;;;6.50;5.50;;;32.50;45.00;;;;;;4965753;28;20440;-65
2022/06/16 07:50:17;;;;;;;5.77;5.30;;;31.60;46.80;;;;;;4967585;28;20466;-64
2022/06/16 07:52:42;;;;;;;5.23;4.90;;;31.90;47.00;;;;;;4969238;28;20443;-65
2022/06/16 07:55:10;;;;;;;6.60;5.40;;;32.30;46.10;;;;;;4967160;28;20471;-65
2022/06/16 07:57:47;;;;;;;5.60;5.07;;;32.60;46.30;;;;;;4972009;28;20191;-65
2022/06/16 08:00:17;;;;;;;5.97;5.57;;;34.10;43.80;;;;;;4970347;28;20455;-65
2022/06/16 08:02:43;;;;;;;6.23;5.70;;;34.90;42.90;;;;;;4966708;28;20436;-65
2022/06/16 08:05:11;;;;;;;5.90;5.33;;;35.90;41.60;;;;;;4966573;28;20455;-65
2022/06/16 08:07:37;;;;;;;5.90;5.50;;;36.70;40.70;;;;;;4967315;28;20243;-65
2022/06/16 08:10:06;;;;;;;5.93;5.33;;;38.60;38.50;;;;;;4969900;28;20474;-62
2022/06/16 08:12:31;;;;;;;6.47;5.77;;;38.10;38.20;;;;;;4962123;28;20448;-62
2022/06/16 08:14:57;;;;;;;5.73;5.33;;;38.80;37.50;;;;;;4968028;28;20474;-61
2022/06/16 08:17:30;;;;;;;6.80;5.50;;;38.00;36.80;;;;;;4964508;28;20219;-63
2022/06/16 08:19:56;;;;;;;5.90;5.40;;;37.20;38.40;;;;;;4965804;28;20219;-62
2022/06/16 08:22:22;;;;;;;7.30;6.30;;;37.70;38.40;;;;;;4967090;28;20439;-62
2022/06/16 08:24:48;;;;;;;5.93;5.33;;;38.50;37.80;;;;;;4967116;28;20459;-63
2022/06/16 08:27:15;;;;;;;6.60;6.07;;;38.10;36.10;;;;;;4970336;28;20444;-64
2022/06/16 08:29:43;;;;;;;9.10;6.13;;;37.20;37.00;;;;;;4970361;28;20211;-66
2022/06/16 08:32:12;;;;;;;6.07;5.67;;;37.80;36.80;;;;;;4964640;28;20464;-70
2022/06/16 08:34:38;;;;;;;6.50;6.00;;;38.30;35.90;;;;;;4966888;28;20851;-70
2022/06/16 08:37:04;;;;;;;6.30;5.70;;;38.20;36.00;;;;;;4964193;28;20444;-69
2022/06/16 08:39:29;;;;;;;5.60;5.00;;;38.90;34.60;;;;;;4970838;28;20202;-72
2022/06/16 08:42:09;;;;;;;5.80;5.17;;;39.10;34.00;;;;;;4968446;28;20200;-70
2022/06/16 08:44:35;;;;;;;5.57;5.10;;;38.90;34.20;;;;;;4966116;28;20190;-63
2022/06/16 08:47:17;;;;;;;5.83;5.33;;;38.40;33.60;;;;;;4964809;28;20448;-64
2022/06/16 08:49:50;;;;;;;5.47;5.00;;;37.00;34.70;;;;;;4970882;28;20688;-62
2022/06/16 08:52:37;;;;;;;6.00;5.60;;;35.00;36.40;;;;;;4968286;28;20482;-63
2022/06/16 08:55:15;;;;;;;5.53;5.00;;;33.70;38.10;;;;;;4962667;28;20471;-62
2022/06/16 08:57:53;;;;;;;5.47;4.97;;;32.90;39.90;;;;;;4963537;28;20980;-63
2022/06/16 09:00:36;;;;;;;5.10;4.80;;;33.60;39.30;;;;;;4970207;28;20482;-67
2022/06/16 09:03:21;;;;;;;5.17;4.67;;;34.20;39.30;;;;;;4957516;28;20459;-67
2022/06/16 09:05:53;;;;;;;5.10;4.70;;;36.10;37.30;;;;;;4966163;28;21219;-68
2022/06/16 09:08:19;;;;;;;4.83;4.43;;;37.80;35.20;;;;;;4966983;28;20507;-67
2022/06/16 09:10:55;;;;;;;5.30;4.90;;;39.00;33.90;;;;;;4962115;28;20972;-65
2022/06/16 09:13:44;;;;;;;5.33;4.83;;;38.60;32.70;;;;;;4965632;28;20211;-64
2022/06/16 09:16:35;;;;;;;5.30;4.80;;;38.80;32.70;;;;;;4963032;28;20452;-64
2022/06/16 09:19:28;;;;;;;8.93;7.93;;;39.30;32.00;;;;;;4963641;28;20494;-64
2022/06/16 09:22:37;;;;;;;7.37;6.70;;;39.80;31.30;;;;;;4969851;28;20453;-62
2022/06/16 09:25:39;;;;;;;5.00;4.60;;;39.00;30.60;;;;;;4967667;28;20961;-65
2022/06/16 09:28:25;;;;;;;5.20;4.80;;;38.80;31.40;;;;;;4968068;28;20550;-67
2022/06/16 09:30:55;;;;;;;5.40;5.00;;;40.30;30.40;;;;;;4971589;28;20471;-66
2022/06/16 09:33:34;;;;;;;5.83;5.33;;;39.70;30.90;;;;;;4962668;28;20557;-68
2022/06/16 09:36:12;;;;;;;5.10;4.60;;;40.20;30.70;;;;;;4969871;28;20936;-67
2022/06/16 09:38:46;;;;;;;5.37;4.90;;;39.50;31.50;;;;;;4967847;28;20474;-65
2022/06/16 09:44:11;;;;;;;5.70;5.30;;;40.30;31.30;;;;;;4967654;28;20486;-63
2022/06/16 09:46:48;;;;;;;5.83;5.23;;;41.10;30.40;;;;;;4972852;28;20474;-62
2022/06/16 09:49:22;;;;;;;5.60;5.10;;;39.40;31.30;;;;;;4965257;28;20451;-62
2022/06/16 09:51:54;;;;;;;5.67;5.30;;;40.10;31.40;;;;;;4968373;28;20806;-66
2022/06/16 09:54:29;;;;;;;5.23;4.87;;;39.80;31.90;;;;;;4968276;28;20471;-65
2022/06/16 09:56:57;;;;;;;5.40;4.97;;;40.50;31.60;;;;;;4962933;28;20485;-65
2022/06/16 09:59:30;;;;;;;4.90;4.60;;;40.30;30.80;;;;;;4971001;28;20917;-64
2022/06/16 10:02:00;;;;;;;5.33;4.93;;;40.50;30.90;;;;;;4971173;28;20453;-61
2022/06/16 10:04:26;;;;;;;5.27;4.77;;;40.90;30.60;;;;;;4967375;28;20459;-63
2022/06/16 10:07:29;;;;;;;5.20;4.70;;;41.60;29.90;;;;;;4968163;28;20822;-68
2022/06/16 10:10:22;;;;;;;5.47;5.10;;;39.80;31.50;;;;;;4973203;28;20223;-67
2022/06/16 10:13:12;;;;;;;5.43;5.07;;;39.70;31.40;;;;;;4970315;28;20486;-65
2022/06/16 10:15:47;;;;;;;5.70;5.30;;;39.40;32.20;;;;;;4971974;28;20452;-64
2022/06/16 10:18:14;;;;;;;5.90;5.57;;;39.20;32.10;;;;;;4969643;28;20488;-64
2022/06/16 10:20:39;;;;;;;5.47;5.07;;;39.40;32.20;;;;;;4967759;28;20538;-64
2022/06/16 10:23:29;;;;;;;6.57;5.40;;;39.80;32.30;;;;;;4972223;28;20865;-63
2022/06/16 10:26:02;;;;;;;5.73;5.37;;;40.40;31.60;;;;;;4966758;28;20200;-70
2022/06/16 10:29:00;;;;;;;5.13;4.83;;;40.30;31.40;;;;;;4972033;28;20498;-72
2022/06/16 10:31:45;;;;;;;5.97;5.03;;;38.60;33.60;;;;;;4970314;28;21052;-65
2022/06/16 10:34:17;;;;;;;5.00;4.70;;;39.10;33.10;;;;;;4970723;28;20534;-68
2022/06/16 10:37:06;;;;;;;5.60;5.20;;;39.10;33.20;;;;;;4971455;28;20446;-66
2022/06/16 10:39:49;;;;;;;6.17;5.77;;;39.70;32.70;;;;;;4965846;28;20470;-64
2022/06/16 10:42:43;;;;;;;5.27;4.77;;;39.00;32.30;;;;;;4971487;28;20594;-69
2022/06/16 10:45:20;;;;;;;5.80;5.40;;;39.30;32.40;;;;;;4970414;28;20475;-67
2022/06/16 10:47:53;;;;;;;5.20;4.70;;;39.80;32.40;;;;;;4970431;28;20546;-67
2022/06/16 10:50:22;;;;;;;5.63;5.23;;;39.70;32.30;;;;;;4972077;28;20534;-63
2022/06/16 10:52:52;;;;;;;5.10;4.60;;;39.40;33.10;;;;;;4964011;28;20452;-66
2022/06/16 10:55:25;;;;;;;5.20;4.80;;;39.40;32.70;;;;;;4970554;28;20474;-65
2022/06/16 10:57:59;;;;;;;4.70;4.50;;;39.60;32.50;;;;;;4969923;28;21007;-66
2022/06/16 11:00:26;;;;;;;4.73;4.40;;;39.40;31.70;;;;;;4971007;28;20463;-68
2022/06/16 11:02:57;;;;;;;5.40;5.00;;;39.70;32.50;;;;;;4966681;28;20800;-66
2022/06/16 11:05:23;;;;;;;5.17;4.87;;;39.60;32.50;;;;;;4971974;28;20443;-70
2022/06/16 11:07:50;;;;;;;5.07;4.77;;;40.40;32.20;;;;;;4966395;28;20986;-68
2022/06/16 11:10:33;;;;;;;4.90;4.60;;;40.50;30.00;;;;;;4966616;28;20505;-68
2022/06/16 11:12:59;;;;;;;4.43;4.13;;;40.40;30.50;;;;;;4972260;28;20546;-67
2022/06/16 11:15:31;;;;;;;5.43;4.93;;;40.10;31.10;;;;;;4967061;28;20591;-68
2022/06/16 11:18:03;;;;;;;5.30;5.00;;;40.10;31.20;;;;;;4964378;28;20828;-68
2022/06/16 11:20:40;;;;;;;5.80;5.40;;;40.00;31.20;;;;;;4976123;28;20899;-68
2022/06/16 11:23:27;;;;;;;5.33;4.90;;;38.60;31.60;;;;;;4969968;28;20790;-68
2022/06/16 11:26:14;;;;;;;5.47;5.00;;;38.50;32.60;;;;;;4971190;28;20514;-68
2022/06/16 11:28:45;;;;;;;5.73;5.23;;;37.70;33.80;;;;;;4972029;28;20424;-68
2022/06/16 11:31:34;;;;;;;5.53;4.80;;;38.40;33.20;;;;;;4970133;28;20455;-67
2022/06/16 11:34:32;;;;;;;5.30;4.90;;;38.30;32.80;;;;;;4967139;28;20467;-68
2022/06/16 11:37:12;;;;;;;4.93;4.53;;;37.50;33.50;;;;;;4970411;28;20444;-68
2022/06/16 11:39:46;;;;;;;6.57;5.27;;;38.00;33.60;;;;;;4966287;28;20463;-68
2022/06/16 11:42:18;;;;;;;5.43;5.03;;;37.20;34.10;;;;;;4965769;28;21285;-68
2022/06/16 11:45:02;;;;;;;6.10;5.00;;;36.80;35.20;;;;;;4971208;28;20486;-68
2022/06/16 11:48:05;;;;;;;5.57;5.17;;;35.60;36.40;;;;;;4958413;28;20448;-68
2022/06/16 11:50:43;;;;;;;6.20;5.57;;;35.30;36.60;;;;;;4966264;28;21059;-69
2022/06/16 11:53:30;;;;;;;5.50;5.10;;;34.60;37.80;;;;;;4968471;28;20517;-68
2022/06/16 11:56:05;;;;;;;5.43;5.03;;;33.90;38.50;;;;;;4969181;28;20439;-68
2022/06/16 11:58:54;;;;;;;5.60;5.10;;;32.70;38.30;;;;;;4972070;28;20443;-68
2022/06/16 12:01:43;;;;;;;5.37;4.97;;;32.50;40.00;;;;;;4970149;28;20525;-68
2022/06/16 12:04:47;;;;;;;5.20;4.70;;;31.90;41.50;;;;;;4956491;28;20911;-66
2022/06/16 12:07:36;;;;;;;5.60;5.10;;;31.10;42.30;;;;;;4963829;28;20821;-66
2022/06/16 12:10:23;;;;;;;5.43;5.03;;;31.00;42.40;;;;;;4963316;28;20543;-66
2022/06/16 12:13:03;;;;;;;5.67;5.27;;;31.00;43.00;;;;;;4968881;28;20455;-67
2022/06/16 12:15:41;;;;;;;10.07;4.80;;;30.90;43.30;;;;;;4967658;28;20510;-66
2022/06/16 12:18:15;;;;;;;4.83;4.50;;;30.80;42.60;;;;;;4962445;28;20853;-67
2022/06/16 12:21:22;;;;;;;5.47;4.77;;;30.80;43.00;;;;;;4965493;28;20462;-67
2022/06/16 12:23:54;;;;;;;5.00;4.60;;;30.80;42.40;;;;;;4966135;28;20822;-67
2022/06/16 12:27:06;;;;;;;8.00;5.03;;;30.80;42.00;;;;;;4966465;28;20455;-64
2022/06/16 12:29:34;;;;;;;6.03;4.70;;;30.80;42.20;;;;;;4965469;28;20459;-64
2022/06/16 12:32:24;;;;;;;5.60;5.07;;;30.70;43.10;;;;;;4965182;28;20452;-64
2022/06/16 12:35:09;;;;;;;6.03;5.53;;;30.80;43.60;;;;;;4968450;28;20991;-64
2022/06/16 12:37:42;;;;;;;5.63;4.60;;;30.90;43.60;;;;;;4966283;28;20511;-64
2022/06/16 12:40:21;;;;;;;6.63;4.80;;;30.80;43.40;;;;;;4966277;28;20824;-65
2022/06/16 12:43:23;;;;;;;4.83;4.50;;;30.60;42.70;;;;;;4965439;28;20449;-64
2022/06/16 12:45:58;;;;;;;5.07;4.67;;;30.50;42.70;;;;;;4962159;28;20522;-63
2022/06/16 12:48:29;;;;;;;7.20;4.90;;;30.40;42.50;;;;;;4964228;28;20485;-65
2022/06/16 12:51:00;;;;;;;4.80;4.40;;;30.30;41.10;;;;;;4969908;28;20495;-67
2022/06/16 12:53:50;;;;;;;4.67;4.37;;;30.20;42.30;;;;;;4969638;28;20439;-67
2022/06/16 12:56:46;;;;;;;5.27;4.77;;;30.20;42.60;;;;;;4963069;28;20439;-67
2022/06/16 12:59:25;;;;;;;7.93;4.67;;;30.10;41.80;;;;;;4965980;28;20517;-67
2022/06/16 13:01:55;;;;;;;5.03;4.53;;;30.00;42.30;;;;;;4964482;28;20453;-67
2022/06/16 13:04:25;;;;;;;5.60;4.90;;;30.00;43.00;;;;;;4966967;28;20466;-64
2022/06/16 13:06:53;;;;;;;5.50;4.80;;;30.00;43.10;;;;;;4968012;28;20435;-65
2022/06/16 13:09:18;;;;;;;4.20;3.90;;;30.10;43.10;;;;;;4966784;28;20940;-64
2022/06/16 13:11:54;;;;;;;4.37;4.10;;;30.10;42.10;;;;;;4966056;28;20457;-65
2022/06/16 13:14:26;;;;;;;6.57;4.13;;;30.00;42.40;;;;;;4968138;28;20355;-65
2022/06/16 13:16:54;;;;;;;5.63;5.23;;;30.10;40.50;;;;;;4959942;28;20442;-64
2022/06/16 13:19:24;;;;;;;5.73;5.33;;;30.10;40.60;;;;;;4965587;28;20446;-64
2022/06/16 13:21:56;;;;;;;4.90;4.60;;;30.10;41.50;;;;;;4969011;28;20542;-65
2022/06/16 13:24:50;;;;;;;4.63;4.33;;;30.20;41.20;;;;;;4969973;28;20805;-64
2022/06/16 13:27:27;;;;;;;4.83;4.53;;;30.20;41.00;;;;;;4965614;28;20786;-65
2022/06/16 13:29:55;;;;;;;5.57;5.07;;;30.00;42.10;;;;;;4970901;28;20455;-65
2022/06/16 13:32:32;;;;;;;4.77;4.40;;;29.90;41.60;;;;;;4966694;28;20454;-65
2022/06/16 13:34:59;;;;;;;3.77;3.57;;;30.00;40.70;;;;;;4971309;28;20474;-65